Time;durP1;ratioP1;P1;durP2;ratioP2;P2;SDS_P1;SDS_P2;PMS_P1;PMS_P2;Temp;Humidity;BMP_temperature;BMP_pressure;BME280_temperature;BME280_humidity;BME280_pressure;Samples;Min_cycle;Max_cycle;Signal;HPM_P1;HPM_P2
2022/09/06 00:02:24;;;;;;;;;;;19.70;94.20;;;;;;5089985;28;19931;-66
2022/09/06 00:04:50;;;;;;;;;;;19.70;94.60;;;;;;5074464;28;19973;-67
2022/09/06 00:07:15;;;;;;;;;;;19.60;94.30;;;;;;5088036;28;19927;-67
2022/09/06 00:09:41;;;;;;;;;;;19.60;94.40;;;;;;5092824;28;19923;-67
2022/09/06 00:12:06;;;;;;;;;;;19.60;94.60;;;;;;5112309;28;20383;-67
2022/09/06 00:14:32;;;;;;;;;;;19.50;94.50;;;;;;5114298;28;19926;-66
2022/09/06 00:16:57;;;;;;;;;;;19.50;94.70;;;;;;5112261;28;19951;-66
2022/09/06 00:19:23;;;;;;;;;;;19.40;95.20;;;;;;5095882;28;19969;-67
2022/09/06 00:21:48;;;;;;;;;;;19.40;95.20;;;;;;5114954;28;19967;-67
2022/09/06 00:24:14;;;;;;;;;;;19.30;95.30;;;;;;5089567;28;19930;-66
2022/09/06 00:26:39;;;;;;;;;;;19.30;95.50;;;;;;5089886;28;19965;-67
2022/09/06 00:29:05;;;;;;;;;;;19.30;95.80;;;;;;5075484;28;20010;-67
2022/09/06 00:31:31;;;;;;;;;;;19.20;95.70;;;;;;5092564;28;19920;-66
2022/09/06 00:33:56;;;;;;;;;;;19.20;95.70;;;;;;5076528;28;19923;-66
2022/09/06 00:36:22;;;;;;;;;;;19.20;95.70;;;;;;5093417;28;19946;-67
2022/09/06 00:38:47;;;;;;;;;;;19.20;95.70;;;;;;5111859;28;19935;-66
2022/09/06 00:41:14;;;;;;;;;;;19.10;95.80;;;;;;5108276;28;19941;-67
2022/09/06 00:43:40;;;;;;;;;;;19.10;96.10;;;;;;5092043;28;19926;-66
2022/09/06 00:46:07;;;;;;;;;;;19.10;96.00;;;;;;5093634;28;20015;-67
2022/09/06 00:48:33;;;;;;;;;;;19.00;96.20;;;;;;5076680;28;19962;-67
2022/09/06 00:51:00;;;;;;;;;;;19.00;96.70;;;;;;5089931;28;20482;-67
2022/09/06 00:53:26;;;;;;;;;;;18.90;96.70;;;;;;5093513;28;19978;-66
2022/09/06 00:55:52;;;;;;;;;;;18.90;97.00;;;;;;5114305;28;20325;-67
2022/09/06 00:58:18;;;;;;;;;;;19.00;96.90;;;;;;5102817;28;19977;-66
2022/09/06 01:00:43;;;;;;;;;;;18.90;97.00;;;;;;5108479;28;19928;-67
2022/09/06 01:03:09;;;;;;;;;;;18.90;97.20;;;;;;5111816;28;19927;-66
2022/09/06 01:05:46;;;;;;;;;;;18.80;97.50;;;;;;5091940;28;19966;-67
2022/09/06 01:08:12;;;;;;;;;;;18.70;97.70;;;;;;5093684;28;19920;-66
2022/09/06 01:10:40;;;;;;;;;;;18.70;97.80;;;;;;5093008;28;20284;-67
2022/09/06 01:13:18;;;;;;;;;;;18.70;97.60;;;;;;5094497;28;19920;-67
2022/09/06 01:16:01;;;;;;;;;;;18.70;97.30;;;;;;5106632;28;20006;-67
2022/09/06 01:18:45;;;;;;;;;;;18.70;96.90;;;;;;5108219;28;19920;-67
2022/09/06 01:21:13;;;;;;;;;;;18.70;96.60;;;;;;5109882;28;19927;-67
2022/09/06 01:23:42;;;;;;;;;;;18.70;98.20;;;;;;5093091;28;19920;-67
2022/09/06 01:26:42;;;;;;;;;;;18.70;97.80;;;;;;5109817;28;19928;-67
2022/09/06 01:29:12;;;;;;;;;;;18.60;97.40;;;;;;5008266;28;19921;-67
2022/09/06 01:31:43;;;;;;;;;;;18.60;98.10;;;;;;5076552;28;19930;-67
2022/09/06 01:34:21;;;;;;;;;;;18.70;98.00;;;;;;5111266;28;19931;-66
2022/09/06 01:36:58;;;;;;;;;;;18.60;98.50;;;;;;5108352;28;19923;-66
2022/09/06 01:39:26;;;;;;;;;;;18.60;98.20;;;;;;5091838;28;19920;-67
2022/09/06 01:41:52;;;;;;;;;;;18.50;98.20;;;;;;5109498;28;19927;-66
2022/09/06 01:44:18;;;;;;;;;;;18.50;98.70;;;;;;5091915;28;19935;-66
2022/09/06 01:46:47;;;;;;;;;;;18.60;98.90;;;;;;5092820;28;20451;-67
2022/09/06 01:49:22;;;;;;;;;;;18.50;98.80;;;;;;5109378;28;20014;-66
2022/09/06 01:52:03;;;;;;;;;;;18.50;99.00;;;;;;5111773;28;20350;-67
2022/09/06 01:54:47;;;;;;;;;;;18.50;98.90;;;;;;5107267;28;19948;-66
2022/09/06 01:57:13;;;;;;;;;;;18.50;99.20;;;;;;5091799;28;20777;-66
2022/09/06 01:59:49;;;;;;;;;;;18.60;99.90;;;;;;5112244;28;19923;-67
2022/09/06 02:02:23;;;;;;;;;;;18.60;99.90;;;;;;5109390;28;19947;-66
2022/09/06 02:05:00;;;;;;;;;;;18.40;99.90;;;;;;5090669;28;19920;-66
2022/09/06 02:07:27;;;;;;;;;;;18.60;99.90;;;;;;5091921;28;19920;-66
2022/09/06 02:09:56;;;;;;;;;;;18.70;99.90;;;;;;5090464;28;19934;-67
2022/09/06 02:12:23;;;;;;;;;;;18.60;99.90;;;;;;5092745;28;20014;-66
2022/09/06 02:14:55;;;;;;;;;;;18.50;99.90;;;;;;5091875;28;19924;-67
2022/09/06 02:17:24;;;;;;;;;;;18.60;99.90;;;;;;5110819;28;19984;-66
2022/09/06 02:20:08;;;;;;;;;;;18.40;99.40;;;;;;5108720;28;19931;-67
2022/09/06 02:22:37;;;;;;;;;;;18.40;99.40;;;;;;5107839;28;19920;-67
2022/09/06 02:25:06;;;;;;;;;;;18.40;99.60;;;;;;5074472;28;20047;-67
2022/09/06 02:27:31;;;;;;;;;;;18.40;99.50;;;;;;5112144;28;19924;-66
2022/09/06 02:29:57;;;;;;;;;;;18.40;99.80;;;;;;5093044;28;19927;-67
2022/09/06 02:32:23;;;;;;;;;;;18.40;99.90;;;;;;5111788;28;19920;-67
2022/09/06 02:34:51;;;;;;;;;;;18.40;99.80;;;;;;5093474;28;19920;-66
2022/09/06 02:37:16;;;;;;;;;;;18.40;99.70;;;;;;5113216;28;19953;-66
2022/09/06 02:39:42;;;;;;;;;;;18.40;99.70;;;;;;5112277;28;19923;-66
2022/09/06 02:42:12;;;;;;;;;;;18.30;99.60;;;;;;5093353;28;19928;-67
2022/09/06 02:44:38;;;;;;;;;;;18.30;99.40;;;;;;5112298;28;19949;-67
2022/09/06 02:47:03;;;;;;;;;;;18.30;99.60;;;;;;5111965;28;19924;-67
2022/09/06 02:49:29;;;;;;;;;;;18.30;99.40;;;;;;5110316;28;20387;-66
2022/09/06 02:51:55;;;;;;;;;;;18.40;99.90;;;;;;5111908;28;20265;-66
2022/09/06 02:54:21;;;;;;;;;;;18.40;99.70;;;;;;5090899;28;20571;-67
2022/09/06 02:56:47;;;;;;;;;;;18.40;99.60;;;;;;5103347;28;19928;-67
2022/09/06 02:59:12;;;;;;;;;;;18.30;99.50;;;;;;5092319;28;19923;-67
2022/09/06 03:01:37;;;;;;;;;;;18.30;99.70;;;;;;5110314;28;20342;-67
2022/09/06 03:04:03;;;;;;;;;;;18.30;99.30;;;;;;5110857;28;20025;-66
2022/09/06 03:06:29;;;;;;;;;;;18.30;99.40;;;;;;5089181;28;20361;-67
2022/09/06 03:08:54;;;;;;;;;;;18.30;99.40;;;;;;5110147;28;19920;-67
2022/09/06 03:11:20;;;;;;;;;;;18.30;99.20;;;;;;5091989;28;19920;-67
2022/09/06 03:13:45;;;;;;;;;;;18.20;99.70;;;;;;5106810;28;19920;-67
2022/09/06 03:16:12;;;;;;;;;;;;;;;;;;5075056;28;20309;-67
2022/09/06 03:18:37;;;;;;;;;;;18.20;99.30;;;;;;5088337;28;19923;-67
2022/09/06 03:21:03;;;;;;;;;;;18.10;99.90;;;;;;5088387;28;20269;-66
2022/09/06 03:23:28;;;;;;;;;;;18.10;99.60;;;;;;5092751;28;19920;-67
2022/09/06 03:25:54;;;;;;;;;;;18.10;99.70;;;;;;5090899;28;19920;-67
2022/09/06 03:28:20;;;;;;;;;;;18.10;99.30;;;;;;5109504;28;19942;-67
2022/09/06 03:30:50;;;;;;;;;;;18.10;99.50;;;;;;5088075;28;20542;-66
2022/09/06 03:33:15;;;;;;;;;;;18.10;99.60;;;;;;5093387;28;19955;-66
2022/09/06 03:35:52;;;;;;;;;;;18.10;99.50;;;;;;5091647;28;19962;-66
2022/09/06 03:38:17;;;;;;;;;;;18.10;99.90;;;;;;5109507;28;19924;-66
2022/09/06 03:40:47;;;;;;;;;;;18.10;99.90;;;;;;5108491;28;20031;-67
2022/09/06 03:43:13;;;;;;;;;;;18.10;99.90;;;;;;5088683;28;19970;-67
2022/09/06 03:45:38;;;;;;;;;;;18.00;99.60;;;;;;5088839;28;19967;-67
2022/09/06 03:48:04;;;;;;;;;;;18.10;99.30;;;;;;5086102;28;19923;-66
2022/09/06 03:50:29;;;;;;;;;;;18.10;99.50;;;;;;5094517;28;19935;-67
2022/09/06 03:52:55;;;;;;;;;;;18.10;99.80;;;;;;5094903;28;19920;-67
2022/09/06 03:55:20;;;;;;;;;;;18.10;99.60;;;;;;5111256;28;19980;-67
2022/09/06 03:57:46;;;;;;;;;;;18.00;99.50;;;;;;5112314;28;20031;-66
2022/09/06 04:00:12;;;;;;;;;;;18.00;99.90;;;;;;5109891;28;19932;-67
2022/09/06 04:02:37;;;;;;;;;;;18.00;99.50;;;;;;5111238;28;20373;-67
2022/09/06 04:05:03;;;;;;;;;;;18.10;99.40;;;;;;5105695;28;19946;-67
2022/09/06 04:07:29;;;;;;;;;;;18.10;99.40;;;;;;5093593;28;20380;-67
2022/09/06 04:09:54;;;;;;;;;;;18.00;99.90;;;;;;5076697;22;20399;-67
2022/09/06 04:12:20;;;;;;;;;;;18.00;99.90;;;;;;5068532;28;19955;-66
2022/09/06 04:14:45;;;;;;;;;;;18.00;99.90;;;;;;5068342;28;20400;-66
2022/09/06 04:17:11;;;;;;;;;;;18.00;99.90;;;;;;5066038;28;19932;-66
2022/09/06 04:19:36;;;;;;;;;;;18.00;99.90;;;;;;5064546;28;20409;-66
2022/09/06 04:22:02;;;;;;;;;;;18.00;99.90;;;;;;5068809;28;19966;-66
2022/09/06 04:24:27;;;;;;;;;;;18.00;99.90;;;;;;5070544;28;19970;-67
2022/09/06 04:26:53;;;;;;;;;;;18.00;99.90;;;;;;5070227;28;20579;-66
2022/09/06 04:29:18;;;;;;;;;;;18.00;99.80;;;;;;5054080;28;19924;-67
2022/09/06 04:31:44;;;;;;;;;;;18.00;99.90;;;;;;5086838;28;19927;-66
2022/09/06 04:34:09;;;;;;;;;;;18.00;99.90;;;;;;5070563;28;19978;-66
2022/09/06 04:36:36;;;;;;;;;;;18.00;99.90;;;;;;5069526;28;22285;-67
2022/09/06 04:39:01;;;;;;;;;;;18.10;99.90;;;;;;5070084;28;19932;-66
2022/09/06 04:41:27;;;;;;;;;;;18.10;99.90;;;;;;5069182;28;19924;-66
2022/09/06 04:43:52;;;;;;;;;;;18.10;99.90;;;;;;5070445;28;20262;-66
2022/09/06 04:46:23;;;;;;;;;;;18.10;99.90;;;;;;5071964;28;19971;-67
2022/09/06 04:48:49;;;;;;;;;;;18.10;99.90;;;;;;5069357;28;19920;-66
2022/09/06 04:51:15;;;;;;;;;;;18.10;99.90;;;;;;5072055;28;19928;-67
2022/09/06 04:53:40;;;;;;;;;;;18.00;99.90;;;;;;5068864;28;19947;-66
2022/09/06 04:56:06;;;;;;;;;;;18.00;99.90;;;;;;5069562;28;20034;-67
2022/09/06 04:58:32;;;;;;;;;;;18.00;99.90;;;;;;5052756;28;20297;-67
2022/09/06 05:00:57;;;;;;;;;;;18.00;99.90;;;;;;5067886;28;20609;-67
2022/09/06 05:03:23;;;;;;;;;;;18.00;99.90;;;;;;5064933;28;19921;-67
2022/09/06 05:05:48;;;;;;;;;;;18.00;99.90;;;;;;5069655;28;19920;-66
2022/09/06 05:08:14;;;;;;;;;;;17.90;99.90;;;;;;5071966;28;19932;-67
2022/09/06 05:10:39;;;;;;;;;;;17.80;99.90;;;;;;5063763;28;20401;-67
2022/09/06 05:13:05;;;;;;;;;;;17.90;99.90;;;;;;5045947;28;20036;-66
2022/09/06 05:15:30;;;;;;;;;;;17.90;99.90;;;;;;5051484;28;19958;-67
2022/09/06 05:18:03;;;;;;;;;;;17.90;99.90;;;;;;5041662;28;20414;-67
2022/09/06 05:20:28;;;;;;;;;;;17.90;99.90;;;;;;5039629;28;19927;-67
2022/09/06 05:22:54;;;;;;;;;;;17.90;99.90;;;;;;5060276;28;19924;-67
2022/09/06 05:25:19;;;;;;;;;;;17.80;99.90;;;;;;5056770;28;19925;-67
2022/09/06 05:27:45;;;;;;;;;;;17.80;99.90;;;;;;5053185;28;19943;-67
2022/09/06 05:30:11;;;;;;;;;;;17.80;99.90;;;;;;5054986;28;19921;-67
2022/09/06 05:32:36;;;;;;;;;;;17.90;99.90;;;;;;5084880;28;19925;-67
2022/09/06 05:35:02;;;;;;;;;;;17.90;99.90;;;;;;5051645;28;19921;-67
2022/09/06 05:37:27;;;;;;;;;;;17.90;99.90;;;;;;5049161;28;20694;-67
2022/09/06 05:39:53;;;;;;;;;;;17.90;99.90;;;;;;5054253;28;19925;-66
2022/09/06 05:42:18;;;;;;;;;;;17.80;99.90;;;;;;5051494;28;19932;-66
2022/09/06 05:44:44;;;;;;;;;;;17.80;99.90;;;;;;5052488;28;19929;-67
2022/09/06 05:47:09;;;;;;;;;;;17.80;99.90;;;;;;5049536;28;20022;-67
2022/09/06 05:49:35;;;;;;;;;;;17.90;99.90;;;;;;5059826;28;20016;-66
2022/09/06 05:52:00;;;;;;;;;;;17.90;99.90;;;;;;5051381;28;19927;-67
2022/09/06 05:54:26;;;;;;;;;;;17.90;99.90;;;;;;5046040;28;19927;-67
2022/09/06 05:56:51;;;;;;;;;;;17.90;99.90;;;;;;5084544;28;19927;-66
2022/09/06 05:59:17;;;;;;;;;;;18.00;99.90;;;;;;5050618;28;19972;-67
2022/09/06 06:01:46;;;;;;;;;;;18.00;99.90;;;;;;5047478;28;19924;-66
2022/09/06 06:04:12;;;;;;;;;;;18.00;99.90;;;;;;5064984;28;20006;-67
2022/09/06 06:06:37;;;;;;;;;;;18.00;99.90;;;;;;5035142;28;19952;-67
2022/09/06 06:09:03;;;;;;;;;;;18.00;99.90;;;;;;5057273;28;19924;-67
2022/09/06 06:11:29;;;;;;;;;;;18.00;99.90;;;;;;5080751;28;19924;-67
2022/09/06 06:13:55;;;;;;;;;;;18.00;99.90;;;;;;5066636;28;19924;-67
2022/09/06 06:16:21;;;;;;;;;;;18.00;99.90;;;;;;5064419;28;20419;-67
2022/09/06 06:18:47;;;;;;;;;;;18.00;99.90;;;;;;5086336;28;19924;-67
2022/09/06 06:21:16;;;;;;;;;;;18.00;99.90;;;;;;5070491;28;19927;-66
2022/09/06 06:23:43;;;;;;;;;;;18.00;99.90;;;;;;5068465;28;20395;-67
2022/09/06 06:26:09;;;;;;;;;;;18.10;99.90;;;;;;5063223;28;19924;-67
2022/09/06 06:28:35;;;;;;;;;;;18.10;99.90;;;;;;5078853;28;19923;-67
2022/09/06 06:31:01;;;;;;;;;;;18.20;99.90;;;;;;5073635;28;20380;-67
2022/09/06 06:33:26;;;;;;;;;;;18.20;99.90;;;;;;5061623;28;19923;-67
2022/09/06 06:36:03;;;;;;;;;;;18.20;99.90;;;;;;5073514;28;19999;-67
2022/09/06 06:38:30;;;;;;;;;;;18.30;99.90;;;;;;5084364;28;20290;-67
2022/09/06 06:40:56;;;;;;;;;;;18.30;99.90;;;;;;5064874;28;20010;-68
2022/09/06 06:43:21;;;;;;;;;;;18.30;99.90;;;;;;5046890;28;20019;-67
2022/09/06 06:45:48;;;;;;;;;;;18.30;99.90;;;;;;5068452;28;20281;-67
2022/09/06 06:48:14;;;;;;;;;;;18.30;99.90;;;;;;5057809;28;19924;-69
2022/09/06 06:50:39;;;;;;;;;;;18.20;99.90;;;;;;5050972;28;19943;-69
2022/09/06 06:53:05;;;;;;;;;;;18.20;99.90;;;;;;5081701;28;19927;-69
2022/09/06 06:55:30;;;;;;;;;;;18.20;99.90;;;;;;5060784;28;19948;-70
2022/09/06 06:57:58;;;;;;;;;;;18.20;99.90;;;;;;5090335;28;19924;-69
2022/09/06 07:00:23;;;;;;;;;;;18.20;99.90;;;;;;5067816;28;19931;-70
2022/09/06 07:02:49;;;;;;;;;;;18.30;99.90;;;;;;5087566;28;19920;-69
2022/09/06 07:05:14;;;;;;;;;;;18.30;99.90;;;;;;5079121;28;20382;-69
2022/09/06 07:07:40;;;;;;;;;;;18.30;99.90;;;;;;5077079;28;19978;-69
2022/09/06 07:10:05;;;;;;;;;;;18.30;99.90;;;;;;5060544;28;20540;-69
2022/09/06 07:12:31;;;;;;;;;;;18.50;99.90;;;;;;5070231;28;19968;-69
2022/09/06 07:14:56;;;;;;;;;;;18.50;99.90;;;;;;5069346;28;19946;-69
2022/09/06 07:17:22;;;;;;;;;;;18.70;99.90;;;;;;5087375;28;19924;-69
2022/09/06 07:19:47;;;;;;;;;;;18.90;99.90;;;;;;5086265;28;19924;-69
2022/09/06 07:22:13;;;;;;;;;;;19.20;99.90;;;;;;5061140;28;19921;-70
2022/09/06 07:24:38;;;;;;;;;;;19.40;99.90;;;;;;5085248;28;20384;-70
2022/09/06 07:27:04;;;;;;;;;;;19.60;99.90;;;;;;5081907;28;19966;-69
2022/09/06 07:29:29;;;;;;;;;;;20.20;99.90;;;;;;5088464;28;19974;-70
2022/09/06 07:31:56;;;;;;;;;;;20.70;99.90;;;;;;5049993;28;19928;-70
2022/09/06 07:34:23;;;;;;;;;;;21.00;99.90;;;;;;5085614;28;20315;-70
2022/09/06 07:36:53;;;;;;;;;;;21.10;99.90;;;;;;5070687;28;20014;-70
2022/09/06 07:39:18;;;;;;;;;;;21.20;99.90;;;;;;5080970;28;19925;-70
2022/09/06 07:41:44;;;;;;;;;;;21.10;99.90;;;;;;5070389;28;19920;-69
2022/09/06 07:44:09;;;;;;;;;;;21.00;99.90;;;;;;5090157;28;19920;-70
2022/09/06 07:46:35;;;;;;;;;;;20.90;99.90;;;;;;5072204;28;19971;-69
2022/09/06 07:49:02;;;;;;;;;;;20.80;99.90;;;;;;5070854;28;20296;-69
2022/09/06 07:51:28;;;;;;;;;;;20.70;99.90;;;;;;5091880;28;19931;-70
2022/09/06 07:53:57;;;;;;;;;;;20.60;99.90;;;;;;5089924;28;19924;-70
2022/09/06 07:56:22;;;;;;;;;;;20.70;99.90;;;;;;5072722;28;19924;-70
2022/09/06 07:58:48;;;;;;;;;;;20.80;99.90;;;;;;5073450;28;20382;-70
2022/09/06 08:01:14;;;;;;;;;;;21.00;99.90;;;;;;5070039;28;19924;-70
2022/09/06 08:03:39;;;;;;;;;;;21.20;99.30;;;;;;5072461;28;19952;-70
2022/09/06 08:06:05;;;;;;;;;;;21.40;98.60;;;;;;5071952;28;19921;-70
2022/09/06 08:08:30;;;;;;;;;;;21.60;98.60;;;;;;5073029;28;19928;-70
2022/09/06 08:10:56;;;;;;;;;;;21.70;99.50;;;;;;5088541;28;19928;-70
2022/09/06 08:13:21;;;;;;;;;;;21.70;98.80;;;;;;5069123;28;19924;-70
2022/09/06 08:15:47;;;;;;;;;;;21.60;99.30;;;;;;5090456;28;20149;-70
2022/09/06 08:18:12;;;;;;;;;;;21.60;98.10;;;;;;5091619;28;19924;-70
2022/09/06 08:20:38;;;;;;;;;;;21.60;98.30;;;;;;5091183;28;19930;-70
2022/09/06 08:23:09;;;;;;;;;;;21.50;99.90;;;;;;5089950;28;20011;-69
2022/09/06 08:25:35;;;;;;;;;;;21.50;99.90;;;;;;5086044;28;19920;-70
2022/09/06 08:28:00;;;;;;;;;;;21.50;99.60;;;;;;5091134;28;19927;-70
2022/09/06 08:30:28;;;;;;;;;;;21.60;99.30;;;;;;5070784;28;21718;-70
2022/09/06 08:32:55;;;;;;;;;;;21.60;98.40;;;;;;5096508;28;19951;-70
2022/09/06 08:35:21;;;;;;;;;;;21.70;98.00;;;;;;5095328;28;19924;-69
2022/09/06 08:37:46;;;;;;;;;;;21.80;99.70;;;;;;5073358;28;19926;-70
2022/09/06 08:40:15;;;;;;;;;;;22.00;98.80;;;;;;5092485;28;19931;-70
2022/09/06 08:42:42;;;;;;;;;;;22.20;98.50;;;;;;5062608;28;19925;-70
2022/09/06 08:45:11;;;;;;;;;;;;;;;;;;5093667;28;19920;-69
2022/09/06 08:47:37;;;;;;;;;;;22.60;96.60;;;;;;5093776;28;19920;-69
2022/09/06 08:50:04;;;;;;;;;;;22.80;97.20;;;;;;5077099;28;20447;-69
2022/09/06 08:52:35;;;;;;;;;;;23.00;96.00;;;;;;5087428;28;19920;-69
2022/09/06 08:55:03;;;;;;;;;;;23.20;97.60;;;;;;5066030;28;19928;-69
2022/09/06 08:57:42;;;;;;;;;;;23.20;95.80;;;;;;5074388;28;19926;-70
2022/09/06 09:00:10;;;;;;;;;;;23.30;95.40;;;;;;5075467;28;20329;-70
2022/09/06 09:02:43;;;;;;;;;;;23.50;95.20;;;;;;5094267;28;19924;-69
2022/09/06 09:05:15;;;;;;;;;;;23.60;95.40;;;;;;5076077;28;19969;-69
2022/09/06 09:07:45;;;;;;;;;;;23.80;93.80;;;;;;5089846;28;20377;-70
2022/09/06 09:10:26;;;;;;;;;;;23.90;94.00;;;;;;5059774;28;19932;-69
2022/09/06 09:12:52;;;;;;;;;;;23.90;93.50;;;;;;5086913;28;19920;-69
2022/09/06 09:15:18;;;;;;;;;;;23.90;93.60;;;;;;5084562;28;19926;-69
2022/09/06 09:17:45;;;;;;;;;;;23.80;93.90;;;;;;5074325;28;19928;-69
2022/09/06 09:20:10;;;;;;;;;;;23.70;93.80;;;;;;5082443;28;19997;-69
2022/09/06 09:22:37;;;;;;;;;;;23.60;94.00;;;;;;5075199;28;19924;-69
2022/09/06 09:25:04;;;;;;;;;;;23.60;94.00;;;;;;5069841;28;20389;-69
2022/09/06 09:27:30;;;;;;;;;;;23.60;94.40;;;;;;5065270;28;19920;-69
2022/09/06 09:30:00;;;;;;;;;;;23.60;94.40;;;;;;5080563;28;19974;-69
2022/09/06 09:32:36;;;;;;;;;;;23.80;94.30;;;;;;5089937;28;19973;-69
2022/09/06 09:35:15;;;;;;;;;;;24.10;94.10;;;;;;5053241;28;19939;-70
2022/09/06 09:37:40;;;;;;;;;;;24.50;93.10;;;;;;5084545;28;19950;-70
2022/09/06 09:40:11;;;;;;;;;;;24.80;92.60;;;;;;5067985;28;20022;-69
2022/09/06 09:42:37;;;;;;;;;;;25.20;92.50;;;;;;5091963;28;20001;-69
2022/09/06 09:45:21;;;;;;;;;;;25.50;91.90;;;;;;5089681;28;19967;-69
2022/09/06 09:47:47;;;;;;;;;;;25.70;90.80;;;;;;5071193;28;20093;-69
2022/09/06 09:50:23;;;;;;;;;;;25.90;91.20;;;;;;5077602;28;20015;-69
2022/09/06 09:52:48;;;;;;;;;;;26.00;90.70;;;;;;5087901;28;19943;-70
2022/09/06 09:55:14;;;;;;;;;;;25.90;89.90;;;;;;5092551;28;19924;-70
2022/09/06 09:57:45;;;;;;;;;;;25.80;89.70;;;;;;5092390;28;20010;-70
2022/09/06 10:00:12;;;;;;;;;;;25.80;90.20;;;;;;5070774;28;19920;-70
2022/09/06 10:02:38;;;;;;;;;;;25.90;90.80;;;;;;5090835;28;19980;-69
2022/09/06 10:05:04;;;;;;;;;;;26.00;90.00;;;;;;5057382;28;19927;-70
2022/09/06 10:07:31;;;;;;;;;;;26.10;88.40;;;;;;5069149;28;19921;-69
2022/09/06 10:10:00;;;;;;;;;;;26.20;89.80;;;;;;5048449;28;20345;-69
2022/09/06 10:12:37;;;;;;;;;;;26.20;87.90;;;;;;5078354;28;19920;-69
2022/09/06 10:15:04;;;;;;;;;;;26.20;88.00;;;;;;5083295;28;19927;-69
2022/09/06 10:17:30;;;;;;;;;;;26.10;88.90;;;;;;5061021;28;19970;-69
2022/09/06 10:19:59;;;;;;;;;;;26.10;88.00;;;;;;5070182;28;19974;-67
2022/09/06 10:22:24;;;;;;;;;;;26.30;89.40;;;;;;5077624;28;20007;-67
2022/09/06 10:25:08;;;;;;;;;;;26.30;88.10;;;;;;5057441;28;20019;-67
2022/09/06 10:27:35;;;;;;;;;;;26.40;87.40;;;;;;5093156;28;19959;-67
2022/09/06 10:30:02;;;;;;;;;;;26.30;86.30;;;;;;5092558;28;19924;-67
2022/09/06 10:32:34;;;;;;;;;;;26.20;87.50;;;;;;5056296;28;19928;-67
2022/09/06 10:34:59;;;;;;;;;;;26.30;87.60;;;;;;5076088;28;20574;-67
2022/09/06 10:37:36;;;;;;;;;;;26.40;87.60;;;;;;5091201;28;20011;-67
2022/09/06 10:40:05;;;;;;;;;;;26.30;88.40;;;;;;5069366;28;19930;-67
2022/09/06 10:42:39;;;;;;;;;;;26.30;88.30;;;;;;5037656;28;20007;-67
2022/09/06 10:45:04;;;;;;;;;;;26.30;89.00;;;;;;5076407;28;19955;-68
2022/09/06 10:47:33;;;;;;;;;;;26.50;86.50;;;;;;5074206;28;19993;-68
2022/09/06 10:49:59;;;;;;;;;;;26.50;86.00;;;;;;5092160;28;20269;-68
2022/09/06 10:52:32;;;;;;;;;;;26.30;86.90;;;;;;5088643;28;20630;-68
2022/09/06 10:55:02;;;;;;;;;;;26.20;87.50;;;;;;5088670;28;19931;-68
2022/09/06 10:57:37;;;;;;;;;;;26.20;87.70;;;;;;5092285;28;19935;-68
2022/09/06 11:00:11;;;;;;;;;;;26.30;86.70;;;;;;5090020;28;19932;-68
2022/09/06 11:02:50;;;;;;;;;;;26.30;86.80;;;;;;5056742;28;19923;-68
2022/09/06 11:05:19;;;;;;;;;;;26.40;85.50;;;;;;5091503;28;19999;-68
2022/09/06 11:07:48;;;;;;;;;;;26.60;84.80;;;;;;5054925;28;19924;-68
2022/09/06 11:10:25;;;;;;;;;;;26.70;85.10;;;;;;5091046;28;19965;-67
2022/09/06 11:12:53;;;;;;;;;;;26.80;84.40;;;;;;5073943;28;20427;-68
2022/09/06 11:15:20;;;;;;;;;;;26.70;84.40;;;;;;5072784;28;19928;-67
2022/09/06 11:17:52;;;;;;;;;;;26.60;83.90;;;;;;5090379;28;19926;-67
2022/09/06 11:20:26;;;;;;;;;;;26.40;84.20;;;;;;5061561;28;19927;-68
2022/09/06 11:22:52;;;;;;;;;;;26.50;84.90;;;;;;5051390;28;19931;-67
2022/09/06 11:25:26;;;;;;;;;;;26.60;84.40;;;;;;5088109;28;19924;-67
2022/09/06 11:27:56;;;;;;;;;;;26.70;84.80;;;;;;5085700;28;20274;-68
2022/09/06 11:30:24;;;;;;;;;;;26.80;83.80;;;;;;5083396;28;19924;-67
2022/09/06 11:32:50;;;;;;;;;;;26.80;83.50;;;;;;5071871;28;19974;-67
2022/09/06 11:35:22;;;;;;;;;;;26.80;84.00;;;;;;5089692;28;19924;-67
2022/09/06 11:37:56;;;;;;;;;;;26.90;84.10;;;;;;5067929;28;19974;-67
2022/09/06 11:40:23;;;;;;;;;;;26.90;83.10;;;;;;5090269;28;19923;-68
2022/09/06 11:42:49;;;;;;;;;;;27.00;84.20;;;;;;5088176;28;19966;-68
2022/09/06 11:45:20;;;;;;;;;;;26.80;82.60;;;;;;5085874;28;19924;-68
2022/09/06 11:47:46;;;;;;;;;;;27.00;82.80;;;;;;5080787;28;19960;-68
2022/09/06 11:50:25;;;;;;;;;;;27.10;85.10;;;;;;5084724;28;20364;-69
2022/09/06 11:52:54;;;;;;;;;;;27.20;83.10;;;;;;5087599;28;19927;-69
2022/09/06 11:55:20;;;;;;;;;;;27.30;82.50;;;;;;5071049;28;20364;-69
2022/09/06 11:57:46;;;;;;;;;;;27.40;83.20;;;;;;5084102;28;19920;-69
2022/09/06 12:00:22;;;;;;;;;;;27.40;81.80;;;;;;5069420;28;20006;-70
2022/09/06 12:02:48;;;;;;;;;;;27.30;82.00;;;;;;5069579;28;19920;-69
2022/09/06 12:05:16;;;;;;;;;;;27.20;82.60;;;;;;5085568;28;20418;-69
2022/09/06 12:08:00;;;;;;;;;;;27.40;82.20;;;;;;5083192;28;19924;-69
2022/09/06 12:10:28;;;;;;;;;;;27.40;81.40;;;;;;5049070;28;20571;-69
2022/09/06 12:12:54;;;;;;;;;;;27.60;81.50;;;;;;5066404;28;19948;-69
2022/09/06 12:15:26;;;;;;;;;;;27.60;82.20;;;;;;5047034;28;20923;-69
2022/09/06 12:17:52;;;;;;;;;;;27.70;81.00;;;;;;5050569;28;19921;-69
2022/09/06 12:20:38;;;;;;;;;;;27.80;80.90;;;;;;5050843;28;19943;-69
2022/09/06 12:23:03;;;;;;;;;;;27.70;80.00;;;;;;5047878;28;19929;-69
2022/09/06 12:25:35;;;;;;;;;;;27.70;80.50;;;;;;5043698;28;19921;-69
2022/09/06 12:28:02;;;;;;;;;;;27.80;80.00;;;;;;5046275;28;20281;-69
2022/09/06 12:30:35;;;;;;;;;;;27.80;78.60;;;;;;5040968;28;20463;-69
2022/09/06 12:33:06;;;;;;;;;;;27.80;78.20;;;;;;5037913;28;20047;-69
2022/09/06 12:35:33;;;;;;;;;;;27.70;78.60;;;;;;5034327;28;19927;-69
2022/09/06 12:37:59;;;;;;;;;;;27.70;79.00;;;;;;5082113;28;20274;-69
2022/09/06 12:40:28;;;;;;;;;;;27.80;79.50;;;;;;5039200;28;19929;-69
2022/09/06 12:42:54;;;;;;;;;;;27.90;77.70;;;;;;5051105;28;19924;-69
2022/09/06 12:45:20;;;;;;;;;;;28.00;79.60;;;;;;5048802;28;20314;-69
2022/09/06 12:47:46;;;;;;;;;;;28.10;78.60;;;;;;5044747;28;20281;-69
2022/09/06 12:50:12;;;;;;;;;;;28.00;77.50;;;;;;5051220;28;19921;-69
2022/09/06 12:52:47;;;;;;;;;;;28.10;77.40;;;;;;5052600;28;20321;-69
2022/09/06 12:55:22;;;;;;;;;;;27.90;77.40;;;;;;5049890;28;20382;-69
2022/09/06 12:57:50;;;;;;;;;;;27.90;78.80;;;;;;5044819;28;19929;-69
2022/09/06 13:00:16;;;;;;;;;;;28.00;80.50;;;;;;5037514;28;19921;-69
2022/09/06 13:03:01;;;;;;;;;;;28.10;78.70;;;;;;5047654;28;20382;-69
2022/09/06 13:05:26;;;;;;;;;;;28.20;77.90;;;;;;5051743;28;19925;-69
2022/09/06 13:07:53;;;;;;;;;;;28.30;78.00;;;;;;5052340;28;19921;-69
2022/09/06 13:10:21;;;;;;;;;;;28.50;78.00;;;;;;5073996;28;19970;-69
2022/09/06 13:12:49;;;;;;;;;;;28.60;77.20;;;;;;5089567;28;19959;-69
2022/09/06 13:15:30;;;;;;;;;;;28.70;77.30;;;;;;5066382;28;19928;-69
2022/09/06 13:18:15;;;;;;;;;;;28.70;76.00;;;;;;5080967;28;19920;-69
2022/09/06 13:20:40;;;;;;;;;;;28.80;75.70;;;;;;5091178;28;19923;-69
2022/09/06 13:23:08;;;;;;;;;;;28.80;76.90;;;;;;5078716;28;20255;-69
2022/09/06 13:25:44;;;;;;;;;;;28.80;76.30;;;;;;5092457;28;20435;-69
2022/09/06 13:28:10;;;;;;;;;;;28.80;77.20;;;;;;5088223;28;19971;-68
2022/09/06 13:30:37;;;;;;;;;;;28.90;77.20;;;;;;5072411;28;19952;-69
2022/09/06 13:33:04;;;;;;;;;;;29.00;76.80;;;;;;5071049;28;20602;-69
2022/09/06 13:35:33;;;;;;;;;;;29.10;76.20;;;;;;5087701;28;19920;-69
2022/09/06 13:38:17;;;;;;;;;;;29.10;75.80;;;;;;5084887;28;20262;-68
2022/09/06 13:40:43;;;;;;;;;;;29.00;74.60;;;;;;5090394;28;19977;-69
2022/09/06 13:43:12;;;;;;;;;;;29.10;75.90;;;;;;5090797;28;19919;-69
2022/09/06 13:45:38;;;;;;;;;;;29.10;74.90;;;;;;5070997;28;19923;-69
2022/09/06 13:48:04;;;;;;;;;;;29.10;76.00;;;;;;5091352;28;20369;-69
2022/09/06 13:50:30;;;;;;;;;;;29.20;76.00;;;;;;5091296;28;20336;-69
2022/09/06 13:52:56;;;;;;;;;;;29.30;76.30;;;;;;5099671;28;19964;-69
2022/09/06 13:55:23;;;;;;;;;;;29.30;74.50;;;;;;5088554;28;19923;-69
2022/09/06 13:57:49;;;;;;;;;;;29.20;74.70;;;;;;5087189;28;19935;-68
2022/09/06 14:00:15;;;;;;;;;;;29.10;73.40;;;;;;5083046;28;20387;-68
2022/09/06 14:02:40;;;;;;;;;;;29.10;74.40;;;;;;5076381;28;19928;-68
2022/09/06 14:05:06;;;;;;;;;;;29.00;76.00;;;;;;5087687;28;20297;-68
2022/09/06 14:07:32;;;;;;;;;;;28.90;76.40;;;;;;5070416;28;19924;-68
2022/09/06 14:09:58;;;;;;;;;;;28.70;76.70;;;;;;5083234;28;19960;-69
2022/09/06 14:12:24;;;;;;;;;;;28.60;77.70;;;;;;5068806;28;19942;-68
2022/09/06 14:14:49;;;;;;;;;;;28.40;76.40;;;;;;5064275;28;19924;-68
2022/09/06 14:17:15;;;;;;;;;;;28.50;77.10;;;;;;5062627;28;20296;-68
2022/09/06 14:19:42;;;;;;;;;;;28.60;77.30;;;;;;5077230;28;19977;-68
2022/09/06 14:22:07;;;;;;;;;;;28.60;78.10;;;;;;5090484;28;19997;-68
2022/09/06 14:24:32;;;;;;;;;;;28.60;77.70;;;;;;5081508;28;19920;-68